createdAt,value
2023-04-12T00:04:15.487Z,99.47
2023-04-12T00:09:16.346Z,100.00
2023-04-12T00:14:17.299Z,100.00
2023-04-12T00:19:18.081Z,100.00
2023-04-12T00:24:18.867Z,100.00
2023-04-12T00:29:20.457Z,100.00
2023-04-12T00:34:22.207Z,100.00
2023-04-12T00:39:22.972Z,100.00
2023-04-12T00:44:23.877Z,100.00
2023-04-12T00:49:29.904Z,100.00
2023-04-12T00:54:32.578Z,100.00
2023-04-12T00:59:33.328Z,100.00
2023-04-12T01:04:37.146Z,100.00
2023-04-12T01:10:26.477Z,100.00
2023-04-12T01:15:34.359Z,100.00
2023-04-12T01:20:43.865Z,100.00
2023-04-12T01:26:21.013Z,100.00
2023-04-12T01:31:25.188Z,100.00
2023-04-12T01:36:27.492Z,100.00
2023-04-12T01:41:28.522Z,100.00
2023-04-12T01:46:31.610Z,100.00
2023-04-12T01:52:20.291Z,100.00
2023-04-12T01:57:22.988Z,100.00
2023-04-12T02:02:24.906Z,100.00
2023-04-12T02:07:26.382Z,100.00
2023-04-12T02:12:27.453Z,100.00
2023-04-12T02:17:29.708Z,100.00
2023-04-12T02:22:30.793Z,100.00
2023-04-12T02:27:32.010Z,100.00
2023-04-12T02:32:44.348Z,100.00
2023-04-12T02:37:48.374Z,100.00
2023-04-12T02:42:49.249Z,100.00
2023-04-12T02:47:50.264Z,100.00
2023-04-12T02:52:52.719Z,100.00
2023-04-12T02:57:54.280Z,100.00
2023-04-12T03:02:58.147Z,100.00
2023-04-12T03:08:01.757Z,100.00
2023-04-12T03:13:11.709Z,100.00
2023-04-12T03:18:16.553Z,100.00
2023-04-12T03:23:20.026Z,100.00
2023-04-12T03:28:24.823Z,100.00
2023-04-12T03:33:27.525Z,100.00
2023-04-12T03:38:33.335Z,100.00
2023-04-12T03:43:36.551Z,100.00
2023-04-12T03:48:41.481Z,100.00
2023-04-12T03:53:43.062Z,100.00
2023-04-12T03:58:47.795Z,100.00
2023-04-12T04:03:50.543Z,100.00
2023-04-12T04:08:58.930Z,100.00
2023-04-12T04:14:01.197Z,100.00
2023-04-12T04:19:02.499Z,100.00
2023-04-12T04:24:03.783Z,100.00
2023-04-12T04:29:09.062Z,100.00
2023-04-12T04:34:13.040Z,100.00
2023-04-12T04:39:18.819Z,100.00
2023-04-12T04:44:20.972Z,100.00
2023-04-12T04:49:27.048Z,100.00
2023-04-12T04:54:30.274Z,100.00
2023-04-12T04:59:32.822Z,100.00
2023-04-12T05:04:45.815Z,100.00
2023-04-12T05:09:48.765Z,100.00
2023-04-12T05:14:51.906Z,100.00
2023-04-12T05:19:53.457Z,100.00
2023-04-12T05:24:55.358Z,100.00
2023-04-12T05:29:57.218Z,100.00
2023-04-12T05:34:58.557Z,100.00
2023-04-12T05:39:59.855Z,100.00
2023-04-12T05:45:01.086Z,100.00
2023-04-12T05:50:02.246Z,100.00
2023-04-12T05:55:04.642Z,100.00
2023-04-12T06:00:16.761Z,100.00
2023-04-12T06:05:18.590Z,100.00
2023-04-12T06:10:20.505Z,100.00
2023-04-12T06:15:29.159Z,100.00
2023-04-12T06:20:45.694Z,100.00
2023-04-12T06:25:49.712Z,100.00
2023-04-12T06:30:50.819Z,100.00
2023-04-12T06:35:52.339Z,100.00
2023-04-12T06:40:53.724Z,100.00
2023-04-12T06:45:56.281Z,100.00
2023-04-12T06:50:57.154Z,100.00
2023-04-12T06:55:57.932Z,100.00
2023-04-12T07:01:05.836Z,100.00
2023-04-12T07:06:17.756Z,100.00
2023-04-12T07:11:25.449Z,100.00
2023-04-12T07:16:26.922Z,100.00
2023-04-12T07:21:28.314Z,100.00
2023-04-12T07:26:30.512Z,100.00
2023-04-12T07:31:31.404Z,100.00
2023-04-12T07:36:32.152Z,100.00
2023-04-12T07:41:32.966Z,100.00
2023-04-12T07:46:33.842Z,100.00
2023-04-12T07:51:34.876Z,100.00
2023-04-12T07:56:35.755Z,100.00
2023-04-12T08:01:36.764Z,100.00
2023-04-12T08:06:37.504Z,100.00
2023-04-12T08:11:38.323Z,100.00
2023-04-12T08:16:39.177Z,100.00
2023-04-12T08:21:40.447Z,100.00
2023-04-12T08:26:41.213Z,100.00
2023-04-12T08:31:42.183Z,100.00
2023-04-12T08:36:43.020Z,100.00
2023-04-12T08:41:44.638Z,100.00
2023-04-12T08:46:46.522Z,100.00
2023-04-12T08:51:47.772Z,100.00
2023-04-12T08:56:48.934Z,100.00
2023-04-12T09:01:50.512Z,100.00
2023-04-12T09:06:51.836Z,100.00
2023-04-12T09:12:06.658Z,100.00
2023-04-12T09:17:24.375Z,100.00
2023-04-12T09:22:35.971Z,100.00
2023-04-12T09:27:50.878Z,100.00
2023-04-12T09:32:53.829Z,100.00
2023-04-12T09:38:06.092Z,100.00
2023-04-12T09:43:07.777Z,100.00
2023-04-12T09:48:18.325Z,100.00
2023-04-12T09:53:19.369Z,100.00
2023-04-12T09:58:21.275Z,100.00
2023-04-12T10:03:22.318Z,100.00
2023-04-12T10:08:23.513Z,100.00
2023-04-12T10:13:26.305Z,100.00
2023-04-12T10:18:27.977Z,100.00
2023-04-12T10:23:32.571Z,100.00
2023-04-12T10:28:33.372Z,100.00
2023-04-12T10:33:37.576Z,100.00
2023-04-12T10:38:47.936Z,100.00
2023-04-12T10:43:51.459Z,100.00
2023-04-12T10:48:53.480Z,100.00
2023-04-12T10:54:34.491Z,100.00
2023-04-12T11:02:13.236Z,100.00
2023-04-12T11:07:17.728Z,100.00
2023-04-12T11:12:40.130Z,100.00
2023-04-12T11:17:41.394Z,100.00
2023-04-12T11:22:42.554Z,100.00
2023-04-12T11:27:51.953Z,100.00
2023-04-12T11:32:52.839Z,100.00
2023-04-12T11:37:56.549Z,100.00
2023-04-12T11:42:59.212Z,100.00
2023-04-12T11:48:00.196Z,100.00
2023-04-12T11:53:13.580Z,100.00
2023-04-12T11:58:14.503Z,100.00
2023-04-12T12:03:15.782Z,100.00
2023-04-12T12:08:18.118Z,100.00
2023-04-12T12:13:18.921Z,100.00
2023-04-12T12:18:25.741Z,100.00
2023-04-12T12:23:31.061Z,100.00
2023-04-12T12:28:39.196Z,100.00
2023-04-12T12:33:46.490Z,100.00
2023-04-12T12:38:52.336Z,100.00
2023-04-12T12:43:53.174Z,100.00
2023-04-12T12:48:54.021Z,100.00
2023-04-12T12:53:54.815Z,100.00
2023-04-12T12:58:56.033Z,100.00
2023-04-12T13:03:58.213Z,100.00
2023-04-12T13:08:59.272Z,100.00
2023-04-12T13:14:00.296Z,100.00
2023-04-12T13:19:01.338Z,100.00
2023-04-12T13:24:02.184Z,100.00
2023-04-12T13:29:03.650Z,100.00
2023-04-12T13:34:04.592Z,100.00
2023-04-12T13:39:05.404Z,100.00
2023-04-12T13:44:06.146Z,100.00
2023-04-12T13:49:07.069Z,100.00
2023-04-12T13:54:07.810Z,100.00
2023-04-12T13:59:08.845Z,100.00
2023-04-12T14:04:09.644Z,100.00
2023-04-12T14:09:27.526Z,100.00
2023-04-12T14:14:28.276Z,100.00
2023-04-12T14:19:29.076Z,100.00
2023-04-12T14:24:30.534Z,100.00
2023-04-12T14:29:31.502Z,100.00
2023-04-12T14:34:33.141Z,100.00
2023-04-12T14:39:34.982Z,100.00
2023-04-12T14:44:35.970Z,100.00
2023-04-12T14:49:37.163Z,100.00
2023-04-12T14:54:38.063Z,100.00
2023-04-12T14:59:39.056Z,100.00
2023-04-12T15:04:40.057Z,100.00
2023-04-12T15:09:43.354Z,98.08
2023-04-12T15:14:44.147Z,96.86
2023-04-12T15:19:45.216Z,94.11
2023-04-12T15:24:46.009Z,81.90
2023-04-12T15:29:48.590Z,84.88
2023-04-12T15:34:50.352Z,84.70
2023-04-12T15:39:51.666Z,86.48
2023-04-12T15:44:52.517Z,89.27
2023-04-12T15:49:53.712Z,90.04
2023-04-12T15:54:54.807Z,85.52
2023-04-12T15:59:58.676Z,82.36
2023-04-12T16:04:59.736Z,78.54
2023-04-12T16:10:02.578Z,72.51
2023-04-12T16:15:04.240Z,70.59
2023-04-12T16:20:05.930Z,74.78
2023-04-12T16:25:07.668Z,64.80
2023-04-12T16:30:11.562Z,61.47
2023-04-12T16:35:14.095Z,59.92
2023-04-12T16:40:16.410Z,61.47
2023-04-12T16:45:17.311Z,63.37
2023-04-12T16:50:18.244Z,63.43
2023-04-12T16:55:19.180Z,67.17
2023-04-12T17:00:21.535Z,69.29
2023-04-12T17:05:23.899Z,67.68
2023-04-12T17:10:25.166Z,66.10
2023-04-12T17:15:26.886Z,65.23
2023-04-12T17:20:28.083Z,66.44
2023-04-12T17:25:30.583Z,66.01
2023-04-12T17:30:31.652Z,65.51
2023-04-12T17:35:33.602Z,68.01
2023-04-12T17:40:34.479Z,70.38
2023-04-12T17:45:35.511Z,71.08
2023-04-12T17:50:36.263Z,72.93
2023-04-12T17:55:37.975Z,73.23
2023-04-12T18:00:38.855Z,73.18
2023-04-12T18:05:40.214Z,73.82
2023-04-12T18:10:41.396Z,83.15
2023-04-12T18:15:42.236Z,100.00
2023-04-12T18:20:43.000Z,100.00
2023-04-12T18:25:44.621Z,100.00
2023-04-12T18:30:45.642Z,100.00
2023-04-12T18:35:46.800Z,100.00
2023-04-12T18:40:47.606Z,100.00
2023-04-12T18:45:48.557Z,100.00
2023-04-12T18:50:49.401Z,100.00
2023-04-12T18:55:50.289Z,100.00
2023-04-12T19:00:51.238Z,100.00
2023-04-12T19:05:55.422Z,100.00
2023-04-12T19:10:56.209Z,100.00
2023-04-12T19:15:58.367Z,100.00
2023-04-12T19:20:59.256Z,100.00
2023-04-12T19:26:00.425Z,100.00
2023-04-12T19:31:09.673Z,100.00
2023-04-12T19:36:12.054Z,100.00
2023-04-12T19:41:13.310Z,100.00
2023-04-12T19:46:14.389Z,100.00
2023-04-12T19:51:15.334Z,100.00
2023-04-12T19:56:16.178Z,100.00
2023-04-12T20:01:17.082Z,100.00
2023-04-12T20:06:17.868Z,100.00
2023-04-12T20:11:20.666Z,100.00
2023-04-12T20:16:23.416Z,100.00
2023-04-12T20:21:24.455Z,100.00
2023-04-12T20:26:30.820Z,100.00
2023-04-12T20:31:32.298Z,100.00
2023-04-12T20:36:33.241Z,100.00
2023-04-12T20:41:37.600Z,100.00
2023-04-12T20:46:38.412Z,100.00
2023-04-12T20:51:39.787Z,100.00
2023-04-12T20:56:41.150Z,100.00
2023-04-12T21:01:44.956Z,100.00
2023-04-12T21:06:47.871Z,100.00
2023-04-12T21:11:50.203Z,100.00
2023-04-12T21:16:51.716Z,100.00
2023-04-12T21:21:52.687Z,100.00
2023-04-12T21:26:57.111Z,100.00
2023-04-12T21:31:58.055Z,100.00
2023-04-12T21:37:01.231Z,100.00
2023-04-12T21:42:02.570Z,100.00
2023-04-12T21:47:03.426Z,100.00
2023-04-12T21:52:04.229Z,100.00
2023-04-12T21:57:05.400Z,100.00
2023-04-12T22:02:07.419Z,100.00
2023-04-12T22:07:11.766Z,100.00
2023-04-12T22:12:12.682Z,100.00
2023-04-12T22:17:13.919Z,100.00
2023-04-12T22:22:15.285Z,100.00
2023-04-12T22:27:16.621Z,100.00
2023-04-12T22:32:17.458Z,100.00
2023-04-12T22:37:18.729Z,100.00
2023-04-12T22:42:19.679Z,100.00
2023-04-12T22:47:20.477Z,100.00
2023-04-12T22:52:21.244Z,100.00
2023-04-12T22:57:22.912Z,100.00
2023-04-12T23:02:24.193Z,100.00
2023-04-12T23:07:26.192Z,100.00
2023-04-12T23:12:26.962Z,100.00
2023-04-12T23:17:28.468Z,100.00
2023-04-12T23:22:44.459Z,100.00
2023-04-12T23:27:55.740Z,100.00
2023-04-12T23:32:57.521Z,100.00
2023-04-12T23:37:58.314Z,100.00
2023-04-12T23:42:59.683Z,100.00
2023-04-12T23:48:00.596Z,100.00
2023-04-12T23:53:01.436Z,100.00
2023-04-12T23:58:02.391Z,100.00
